sensor_id;sensor_type;location;lat;lon;timestamp;pressure;altitude;pressure_sealevel;temperature;humidity
75317;BME280;63913;51.492;10.368;2023-05-13T00:01:26;98703.28;;;11.13;74.72
75317;BME280;63913;51.492;10.368;2023-05-13T00:03:51;98694.69;;;11.13;74.60
75317;BME280;63913;51.492;10.368;2023-05-13T00:06:16;98684.38;;;11.13;74.18
75317;BME280;63913;51.492;10.368;2023-05-13T00:08:42;98692.97;;;11.13;74.55
75317;BME280;63913;51.492;10.368;2023-05-13T00:11:07;98687.69;;;11.07;74.20
75317;BME280;63913;51.492;10.368;2023-05-13T00:13:33;98685.91;;;11.04;74.51
75317;BME280;63913;51.492;10.368;2023-05-13T00:15:58;98684.34;;;11.09;74.57
75317;BME280;63913;51.492;10.368;2023-05-13T00:18:24;98684.22;;;11.05;74.45
75317;BME280;63913;51.492;10.368;2023-05-13T00:20:50;98686.69;;;11.00;74.45
75317;BME280;63913;51.492;10.368;2023-05-13T00:23:16;98689.22;;;10.99;74.63
75317;BME280;63913;51.492;10.368;2023-05-13T00:25:41;98694.28;;;10.96;74.90
75317;BME280;63913;51.492;10.368;2023-05-13T00:28:08;98683.16;;;10.97;74.68
75317;BME280;63913;51.492;10.368;2023-05-13T00:30:33;98684.81;;;10.95;74.64
75317;BME280;63913;51.492;10.368;2023-05-13T00:32:59;98685.47;;;10.85;74.93
75317;BME280;63913;51.492;10.368;2023-05-13T00:35:24;98689.72;;;10.84;75.09
75317;BME280;63913;51.492;10.368;2023-05-13T00:37:49;98691.44;;;10.84;74.74
75317;BME280;63913;51.492;10.368;2023-05-13T00:40:18;98696.72;;;10.90;75.16
75317;BME280;63913;51.492;10.368;2023-05-13T00:42:44;98703.53;;;10.88;75.06
75317;BME280;63913;51.492;10.368;2023-05-13T00:45:10;98698.38;;;10.88;74.83
75317;BME280;63913;51.492;10.368;2023-05-13T00:47:35;98700.94;;;10.86;74.72
75317;BME280;63913;51.492;10.368;2023-05-13T00:50:01;98697.38;;;10.81;74.82
75317;BME280;63913;51.492;10.368;2023-05-13T00:52:27;98700.75;;;10.80;74.88
75317;BME280;63913;51.492;10.368;2023-05-13T00:54:53;98699.03;;;10.79;75.02
75317;BME280;63913;51.492;10.368;2023-05-13T00:57:18;98701.41;;;10.71;75.10
75317;BME280;63913;51.492;10.368;2023-05-13T00:59:43;98698.84;;;10.71;74.88
75317;BME280;63913;51.492;10.368;2023-05-13T01:02:20;98699.66;;;10.69;75.02
75317;BME280;63913;51.492;10.368;2023-05-13T01:04:58;98699.66;;;10.70;75.17
75317;BME280;63913;51.492;10.368;2023-05-13T01:10:35;98707.19;;;10.63;75.05
75317;BME280;63913;51.492;10.368;2023-05-13T01:13:08;98701.13;;;10.59;75.05
75317;BME280;63913;51.492;10.368;2023-05-13T01:15:40;98697.63;;;10.57;75.33
75317;BME280;63913;51.492;10.368;2023-05-13T01:18:13;98698.41;;;10.55;75.18
75317;BME280;63913;51.492;10.368;2023-05-13T01:20:41;98705.25;;;10.53;75.01
75317;BME280;63913;51.492;10.368;2023-05-13T01:23:08;98707.81;;;10.54;74.85
75317;BME280;63913;51.492;10.368;2023-05-13T01:25:34;98709.41;;;10.49;75.08
75317;BME280;63913;51.492;10.368;2023-05-13T01:28:00;98710.25;;;10.48;74.87
75317;BME280;63913;51.492;10.368;2023-05-13T01:30:26;98707.56;;;10.44;74.69
75317;BME280;63913;51.492;10.368;2023-05-13T01:32:52;98708.63;;;10.52;74.47
75317;BME280;63913;51.492;10.368;2023-05-13T01:35:18;98716.25;;;10.49;74.38
75317;BME280;63913;51.492;10.368;2023-05-13T01:37:46;98716.94;;;10.42;74.56
75317;BME280;63913;51.492;10.368;2023-05-13T01:40:12;98716.06;;;10.41;74.45
75317;BME280;63913;51.492;10.368;2023-05-13T01:42:37;98722.13;;;10.43;74.60
75317;BME280;63913;51.492;10.368;2023-05-13T01:45:03;98722.16;;;10.45;74.36
75317;BME280;63913;51.492;10.368;2023-05-13T01:47:30;98719.41;;;10.37;74.47
75317;BME280;63913;51.492;10.368;2023-05-13T01:49:55;98728.81;;;10.37;74.39
75317;BME280;63913;51.492;10.368;2023-05-13T01:52:21;98719.16;;;10.28;74.70
75317;BME280;63913;51.492;10.368;2023-05-13T01:54:46;98717.44;;;10.28;74.99
75317;BME280;63913;51.492;10.368;2023-05-13T01:57:13;98723.53;;;10.32;74.50
75317;BME280;63913;51.492;10.368;2023-05-13T01:59:38;98724.34;;;10.29;74.30
75317;BME280;63913;51.492;10.368;2023-05-13T02:02:03;98724.25;;;10.26;74.28
75317;BME280;63913;51.492;10.368;2023-05-13T02:04:29;98724.94;;;10.21;74.72
75317;BME280;63913;51.492;10.368;2023-05-13T02:06:55;98728.41;;;10.21;74.74
75317;BME280;63913;51.492;10.368;2023-05-13T02:09:21;98721.53;;;10.22;74.63
75317;BME280;63913;51.492;10.368;2023-05-13T02:11:46;98722.53;;;10.27;74.37
75317;BME280;63913;51.492;10.368;2023-05-13T02:14:12;98719.97;;;10.27;74.64
75317;BME280;63913;51.492;10.368;2023-05-13T02:16:37;98722.28;;;10.18;74.66
75317;BME280;63913;51.492;10.368;2023-05-13T02:19:05;98724.84;;;10.18;73.57
75317;BME280;63913;51.492;10.368;2023-05-13T02:21:30;98723.75;;;10.10;73.71
75317;BME280;63913;51.492;10.368;2023-05-13T02:23:56;98729.59;;;10.04;74.14
75317;BME280;63913;51.492;10.368;2023-05-13T02:26:21;98731.53;;;9.83;74.46
75317;BME280;63913;51.492;10.368;2023-05-13T02:28:47;98722.31;;;9.89;74.09
75317;BME280;63913;51.492;10.368;2023-05-13T02:31:12;98725.78;;;9.91;74.00
75317;BME280;63913;51.492;10.368;2023-05-13T02:33:39;98730.38;;;10.02;74.19
75317;BME280;63913;51.492;10.368;2023-05-13T02:36:05;98730.19;;;9.95;73.92
75317;BME280;63913;51.492;10.368;2023-05-13T02:38:30;98730.19;;;9.95;74.35
75317;BME280;63913;51.492;10.368;2023-05-13T02:40:56;98726.63;;;9.90;74.59
75317;BME280;63913;51.492;10.368;2023-05-13T02:43:21;98726.34;;;9.80;74.91
75317;BME280;63913;51.492;10.368;2023-05-13T02:45:55;98726.41;;;9.83;75.16
75317;BME280;63913;51.492;10.368;2023-05-13T02:48:20;98721.88;;;9.74;75.48
75317;BME280;63913;51.492;10.368;2023-05-13T02:50:45;98724.47;;;9.76;75.62
75317;BME280;63913;51.492;10.368;2023-05-13T02:53:11;98719.94;;;9.67;75.79
75317;BME280;63913;51.492;10.368;2023-05-13T02:55:41;98726.72;;;9.64;75.61
75317;BME280;63913;51.492;10.368;2023-05-13T02:58:08;98727.53;;;9.63;75.30
75317;BME280;63913;51.492;10.368;2023-05-13T03:00:33;98731.03;;;9.66;75.15
75317;BME280;63913;51.492;10.368;2023-05-13T03:02:59;98725.41;;;9.49;75.74
75317;BME280;63913;51.492;10.368;2023-05-13T03:05:25;98721.47;;;9.61;75.92
75317;BME280;63913;51.492;10.368;2023-05-13T03:07:50;98723.91;;;9.56;75.26
75317;BME280;63913;51.492;10.368;2023-05-13T03:10:16;98717.88;;;9.54;75.12
75317;BME280;63913;51.492;10.368;2023-05-13T03:12:41;98720.97;;;9.44;75.90
75317;BME280;63913;51.492;10.368;2023-05-13T03:15:08;98719.22;;;9.43;75.64
75317;BME280;63913;51.492;10.368;2023-05-13T03:17:33;98722.94;;;9.24;76.96
75317;BME280;63913;51.492;10.368;2023-05-13T03:19:59;98718.00;;;9.30;77.22
75317;BME280;63913;51.492;10.368;2023-05-13T03:22:25;98718.44;;;9.45;76.55
75317;BME280;63913;51.492;10.368;2023-05-13T03:24:51;98722.13;;;9.53;75.82
75317;BME280;63913;51.492;10.368;2023-05-13T03:27:17;98726.34;;;9.51;76.14
75317;BME280;63913;51.492;10.368;2023-05-13T03:29:43;98730.69;;;9.54;75.98
75317;BME280;63913;51.492;10.368;2023-05-13T03:32:08;98728.31;;;9.60;76.19
75317;BME280;63913;51.492;10.368;2023-05-13T03:34:34;98734.47;;;9.67;76.16
75317;BME280;63913;51.492;10.368;2023-05-13T03:37:01;98736.88;;;9.61;76.19
75317;BME280;63913;51.492;10.368;2023-05-13T03:39:28;98732.22;;;9.47;76.88
75317;BME280;63913;51.492;10.368;2023-05-13T03:41:53;98740.84;;;9.51;76.95
75317;BME280;63913;51.492;10.368;2023-05-13T03:44:19;98738.22;;;9.48;76.72
75317;BME280;63913;51.492;10.368;2023-05-13T03:46:44;98732.97;;;9.45;77.04
75317;BME280;63913;51.492;10.368;2023-05-13T03:49:10;98741.16;;;9.33;77.13
75317;BME280;63913;51.492;10.368;2023-05-13T03:51:36;98735.44;;;9.40;77.75
75317;BME280;63913;51.492;10.368;2023-05-13T03:54:02;98736.53;;;9.50;77.12
75317;BME280;63913;51.492;10.368;2023-05-13T03:56:27;98738.56;;;9.60;77.23
75317;BME280;63913;51.492;10.368;2023-05-13T03:58:53;98734.97;;;9.53;77.44
75317;BME280;63913;51.492;10.368;2023-05-13T04:01:18;98730.75;;;9.55;77.45
75317;BME280;63913;51.492;10.368;2023-05-13T04:03:44;98739.16;;;9.51;76.97
75317;BME280;63913;51.492;10.368;2023-05-13T04:06:11;98734.81;;;9.49;77.45
75317;BME280;63913;51.492;10.368;2023-05-13T04:08:38;98742.28;;;9.41;77.99
75317;BME280;63913;51.492;10.368;2023-05-13T04:11:03;98736.25;;;9.41;77.72
75317;BME280;63913;51.492;10.368;2023-05-13T04:13:28;98738.00;;;9.40;77.92
75317;BME280;63913;51.492;10.368;2023-05-13T04:15:54;98746.50;;;9.39;78.03
75317;BME280;63913;51.492;10.368;2023-05-13T04:18:20;98739.75;;;9.43;78.24
75317;BME280;63913;51.492;10.368;2023-05-13T04:20:45;98742.59;;;9.52;78.01
75317;BME280;63913;51.492;10.368;2023-05-13T04:23:11;98744.16;;;9.47;78.37
75317;BME280;63913;51.492;10.368;2023-05-13T04:25:36;98748.50;;;9.48;78.46
75317;BME280;63913;51.492;10.368;2023-05-13T04:28:02;98752.97;;;9.55;78.28
75317;BME280;63913;51.492;10.368;2023-05-13T04:30:31;98751.41;;;9.60;78.29
75317;BME280;63913;51.492;10.368;2023-05-13T04:32:56;98756.81;;;9.69;78.21
75317;BME280;63913;51.492;10.368;2023-05-13T04:35:22;98750.09;;;9.74;78.58
75317;BME280;63913;51.492;10.368;2023-05-13T04:37:51;98756.91;;;9.72;78.97
75317;BME280;63913;51.492;10.368;2023-05-13T04:40:18;98753.38;;;9.69;79.50
75317;BME280;63913;51.492;10.368;2023-05-13T04:42:45;98762.06;;;9.74;79.67
75317;BME280;63913;51.492;10.368;2023-05-13T04:45:10;98759.50;;;9.74;80.13
75317;BME280;63913;51.492;10.368;2023-05-13T04:47:36;98753.78;;;9.82;80.15
75317;BME280;63913;51.492;10.368;2023-05-13T04:50:02;98752.34;;;9.92;80.02
75317;BME280;63913;51.492;10.368;2023-05-13T04:52:28;98759.53;;;10.04;79.72
75317;BME280;63913;51.492;10.368;2023-05-13T04:54:54;98758.13;;;10.13;79.62
75317;BME280;63913;51.492;10.368;2023-05-13T04:57:19;98754.94;;;10.22;79.60
75317;BME280;63913;51.492;10.368;2023-05-13T04:59:45;98756.81;;;10.27;79.70
75317;BME280;63913;51.492;10.368;2023-05-13T05:02:10;98761.19;;;10.31;80.30
75317;BME280;63913;51.492;10.368;2023-05-13T05:04:36;98758.06;;;10.42;79.76
75317;BME280;63913;51.492;10.368;2023-05-13T05:07:06;98759.91;;;10.47;79.91
75317;BME280;63913;51.492;10.368;2023-05-13T05:09:31;98764.38;;;10.54;80.05
75317;BME280;63913;51.492;10.368;2023-05-13T05:11:57;98761.03;;;10.57;80.90
75317;BME280;63913;51.492;10.368;2023-05-13T05:14:25;98752.81;;;10.70;81.00
75317;BME280;63913;51.492;10.368;2023-05-13T05:16:51;98763.25;;;10.76;80.61
75317;BME280;63913;51.492;10.368;2023-05-13T05:19:16;98758.31;;;10.84;80.77
75317;BME280;63913;51.492;10.368;2023-05-13T05:21:42;98768.84;;;10.93;80.15
75317;BME280;63913;51.492;10.368;2023-05-13T05:24:08;98759.50;;;10.98;80.12
75317;BME280;63913;51.492;10.368;2023-05-13T05:26:33;98757.06;;;11.02;80.03
75317;BME280;63913;51.492;10.368;2023-05-13T05:29:00;98757.13;;;11.05;80.10
75317;BME280;63913;51.492;10.368;2023-05-13T05:31:25;98762.38;;;11.08;80.11
75317;BME280;63913;51.492;10.368;2023-05-13T05:33:51;98760.75;;;11.14;80.11
75317;BME280;63913;51.492;10.368;2023-05-13T05:36:17;98761.81;;;11.22;80.21
75317;BME280;63913;51.492;10.368;2023-05-13T05:38:42;98761.94;;;11.26;80.04
75317;BME280;63913;51.492;10.368;2023-05-13T05:41:08;98767.09;;;11.28;80.15
75317;BME280;63913;51.492;10.368;2023-05-13T05:43:34;98762.91;;;11.31;79.38
75317;BME280;63913;51.492;10.368;2023-05-13T05:45:59;98776.81;;;11.39;78.07
75317;BME280;63913;51.492;10.368;2023-05-13T05:48:25;98774.28;;;11.41;75.78
75317;BME280;63913;51.492;10.368;2023-05-13T05:50:50;98773.56;;;11.46;74.94
75317;BME280;63913;51.492;10.368;2023-05-13T05:53:23;98775.38;;;11.51;73.46
75317;BME280;63913;51.492;10.368;2023-05-13T05:55:49;98776.31;;;11.54;72.72
75317;BME280;63913;51.492;10.368;2023-05-13T05:58:15;98779.75;;;11.55;72.54
75317;BME280;63913;51.492;10.368;2023-05-13T06:00:41;98784.16;;;11.60;73.13
75317;BME280;63913;51.492;10.368;2023-05-13T06:03:06;98776.50;;;11.63;72.83
75317;BME280;63913;51.492;10.368;2023-05-13T06:05:32;98778.31;;;11.66;72.15
75317;BME280;63913;51.492;10.368;2023-05-13T06:07:57;98774.03;;;11.68;72.66
75317;BME280;63913;51.492;10.368;2023-05-13T06:10:23;98773.38;;;11.75;71.95
75317;BME280;63913;51.492;10.368;2023-05-13T06:12:48;98775.09;;;11.76;72.42
75317;BME280;63913;51.492;10.368;2023-05-13T06:15:15;98774.31;;;11.78;72.08
75317;BME280;63913;51.492;10.368;2023-05-13T06:17:43;98775.25;;;11.82;72.15
75317;BME280;63913;51.492;10.368;2023-05-13T06:20:08;98780.47;;;11.85;73.52
75317;BME280;63913;51.492;10.368;2023-05-13T06:22:34;98777.97;;;11.88;73.89
75317;BME280;63913;51.492;10.368;2023-05-13T06:24:59;98767.72;;;11.91;74.25
75317;BME280;63913;51.492;10.368;2023-05-13T06:27:25;98766.91;;;11.94;74.23
75317;BME280;63913;51.492;10.368;2023-05-13T06:29:50;98775.56;;;11.97;73.60
75317;BME280;63913;51.492;10.368;2023-05-13T06:32:17;98774.75;;;11.98;73.06
75317;BME280;63913;51.492;10.368;2023-05-13T06:34:42;98771.34;;;11.99;72.20
75317;BME280;63913;51.492;10.368;2023-05-13T06:37:13;98774.81;;;12.03;72.23
75317;BME280;63913;51.492;10.368;2023-05-13T06:39:39;98770.59;;;12.05;72.25
75317;BME280;63913;51.492;10.368;2023-05-13T06:42:05;98779.22;;;12.07;73.02
75317;BME280;63913;51.492;10.368;2023-05-13T06:44:36;98774.16;;;12.11;72.41
75317;BME280;63913;51.492;10.368;2023-05-13T06:47:04;98777.69;;;12.16;73.17
75317;BME280;63913;51.492;10.368;2023-05-13T06:49:31;98777.78;;;12.21;72.89
75317;BME280;63913;51.492;10.368;2023-05-13T06:51:57;98773.59;;;12.26;73.21
75317;BME280;63913;51.492;10.368;2023-05-13T06:54:22;98775.41;;;12.30;72.68
75317;BME280;63913;51.492;10.368;2023-05-13T06:56:48;98772.06;;;12.36;73.50
75317;BME280;63913;51.492;10.368;2023-05-13T06:59:13;98769.56;;;12.39;73.16
75317;BME280;63913;51.492;10.368;2023-05-13T07:01:39;98774.81;;;12.45;73.16
75317;BME280;63913;51.492;10.368;2023-05-13T07:04:06;98773.22;;;12.51;72.90
75317;BME280;63913;51.492;10.368;2023-05-13T07:06:31;98771.63;;;12.56;72.55
75317;BME280;63913;51.492;10.368;2023-05-13T07:08:57;98779.50;;;12.64;72.69
75317;BME280;63913;51.492;10.368;2023-05-13T07:11:22;98765.88;;;12.71;72.78
75317;BME280;63913;51.492;10.368;2023-05-13T07:13:48;98776.31;;;12.79;72.97
75317;BME280;63913;51.492;10.368;2023-05-13T07:16:13;98777.25;;;12.84;73.12
75317;BME280;63913;51.492;10.368;2023-05-13T07:18:39;98769.69;;;12.93;73.11
75317;BME280;63913;51.492;10.368;2023-05-13T07:21:04;98768.97;;;13.02;71.82
75317;BME280;63913;51.492;10.368;2023-05-13T07:23:31;98774.22;;;13.08;72.02
75317;BME280;63913;51.492;10.368;2023-05-13T07:25:56;98771.78;;;13.14;71.69
75317;BME280;63913;51.492;10.368;2023-05-13T07:28:22;98765.03;;;13.20;72.13
75317;BME280;63913;51.492;10.368;2023-05-13T07:30:47;98764.25;;;13.26;71.46
75317;BME280;63913;51.492;10.368;2023-05-13T07:33:13;98772.94;;;13.32;71.30
75317;BME280;63913;51.492;10.368;2023-05-13T07:35:38;98762.72;;;13.37;71.55
75317;BME280;63913;51.492;10.368;2023-05-13T07:38:05;98763.63;;;13.42;71.55
75317;BME280;63913;51.492;10.368;2023-05-13T07:40:31;98758.50;;;13.47;71.60
75317;BME280;63913;51.492;10.368;2023-05-13T07:42:56;98757.78;;;13.55;71.22
75317;BME280;63913;51.492;10.368;2023-05-13T07:45:21;98757.91;;;13.61;70.93
75317;BME280;63913;51.492;10.368;2023-05-13T07:47:47;98759.78;;;13.73;71.60
75317;BME280;63913;51.492;10.368;2023-05-13T07:50:12;98755.63;;;13.84;71.86
75317;BME280;63913;51.492;10.368;2023-05-13T07:52:37;98759.28;;;14.03;71.00
75317;BME280;63913;51.492;10.368;2023-05-13T07:55:03;98753.41;;;14.14;70.22
75317;BME280;63913;51.492;10.368;2023-05-13T07:57:29;98748.34;;;14.22;69.32
75317;BME280;63913;51.492;10.368;2023-05-13T07:59:55;98747.88;;;14.55;62.69
75317;BME280;63913;51.492;10.368;2023-05-13T08:02:20;98744.56;;;14.67;60.34
75317;BME280;63913;51.492;10.368;2023-05-13T08:04:46;98742.94;;;14.79;58.38
75317;BME280;63913;51.492;10.368;2023-05-13T08:07:11;98743.88;;;14.87;58.74
75317;BME280;63913;51.492;10.368;2023-05-13T08:09:37;98746.59;;;15.00;57.93
75317;BME280;63913;51.492;10.368;2023-05-13T08:12:02;98741.47;;;15.10;56.83
75317;BME280;63913;51.492;10.368;2023-05-13T08:14:28;98746.84;;;15.32;56.13
75317;BME280;63913;51.492;10.368;2023-05-13T08:16:53;98751.16;;;15.33;56.11
75317;BME280;63913;51.492;10.368;2023-05-13T08:19:19;98738.31;;;15.51;54.65
75317;BME280;63913;51.492;10.368;2023-05-13T08:21:44;98742.72;;;15.55;54.44
75317;BME280;63913;51.492;10.368;2023-05-13T08:24:09;98743.63;;;15.63;54.84
75317;BME280;63913;51.492;10.368;2023-05-13T08:26:36;98746.38;;;15.92;55.98
75317;BME280;63913;51.492;10.368;2023-05-13T08:29:01;98742.97;;;16.00;56.37
75317;BME280;63913;51.492;10.368;2023-05-13T08:31:26;98742.19;;;16.21;53.44
75317;BME280;63913;51.492;10.368;2023-05-13T08:33:52;98748.28;;;16.32;53.34
75317;BME280;63913;51.492;10.368;2023-05-13T08:36:19;98747.47;;;16.56;53.36
75317;BME280;63913;51.492;10.368;2023-05-13T08:38:44;98746.66;;;16.78;52.26
75317;BME280;63913;51.492;10.368;2023-05-13T08:41:13;98754.50;;;16.94;52.25
75317;BME280;63913;51.492;10.368;2023-05-13T08:43:40;98751.91;;;17.06;52.44
75317;BME280;63913;51.492;10.368;2023-05-13T08:46:10;98751.91;;;17.16;52.79
75317;BME280;63913;51.492;10.368;2023-05-13T08:48:38;98753.66;;;17.25;51.46
75317;BME280;63913;51.492;10.368;2023-05-13T08:51:03;98744.09;;;17.36;51.33
75317;BME280;63913;51.492;10.368;2023-05-13T08:53:29;98751.88;;;17.45;52.80
75317;BME280;63913;51.492;10.368;2023-05-13T08:55:57;98757.94;;;17.60;51.39
75317;BME280;63913;51.492;10.368;2023-05-13T08:58:23;98755.34;;;17.69;50.42
75317;BME280;63913;51.492;10.368;2023-05-13T09:00:51;98757.94;;;17.82;49.92
75317;BME280;63913;51.492;10.368;2023-05-13T09:03:18;98752.69;;;17.93;50.02
75317;BME280;63913;51.492;10.368;2023-05-13T09:05:43;98756.16;;;17.98;51.27
75317;BME280;63913;51.492;10.368;2023-05-13T09:08:09;98762.19;;;18.02;51.15
75317;BME280;63913;51.492;10.368;2023-05-13T09:10:35;98745.69;;;18.09;50.36
75317;BME280;63913;51.492;10.368;2023-05-13T09:13:01;98757.84;;;18.14;50.16
75317;BME280;63913;51.492;10.368;2023-05-13T09:15:27;98748.25;;;18.19;50.48
75317;BME280;63913;51.492;10.368;2023-05-13T09:17:55;98749.09;;;18.26;50.71
75317;BME280;63913;51.492;10.368;2023-05-13T09:20:22;98749.94;;;18.33;49.40
75317;BME280;63913;51.492;10.368;2023-05-13T09:25:19;98762.00;;;18.53;49.85
75317;BME280;63913;51.492;10.368;2023-05-13T09:27:47;98756.78;;;18.58;46.94
75317;BME280;63913;51.492;10.368;2023-05-13T09:30:13;98757.63;;;18.60;48.66
75317;BME280;63913;51.492;10.368;2023-05-13T09:32:39;98761.97;;;18.64;48.35
75317;BME280;63913;51.492;10.368;2023-05-13T09:35:09;98755.84;;;18.71;48.43
75317;BME280;63913;51.492;10.368;2023-05-13T09:37:36;98754.94;;;18.77;46.12
75317;BME280;63913;51.492;10.368;2023-05-13T09:40:01;98755.75;;;18.85;47.61
75317;BME280;63913;51.492;10.368;2023-05-13T09:42:28;98765.19;;;18.99;46.91
75317;BME280;63913;51.492;10.368;2023-05-13T09:44:54;98747.75;;;19.09;49.95
75317;BME280;63913;51.492;10.368;2023-05-13T09:47:19;98753.78;;;19.16;45.46
75317;BME280;63913;51.492;10.368;2023-05-13T09:49:53;98759.88;;;19.15;45.61
75317;BME280;63913;51.492;10.368;2023-05-13T09:52:21;98754.56;;;19.25;46.57
75317;BME280;63913;51.492;10.368;2023-05-13T09:54:46;98752.78;;;19.32;45.88
75317;BME280;63913;51.492;10.368;2023-05-13T09:57:12;98753.56;;;19.43;45.15
75317;BME280;63913;51.492;10.368;2023-05-13T09:59:37;98763.94;;;19.46;46.16
75317;BME280;63913;51.492;10.368;2023-05-13T10:02:05;98758.72;;;19.52;43.47
75317;BME280;63913;51.492;10.368;2023-05-13T10:04:31;98756.94;;;19.56;43.16
75317;BME280;63913;51.492;10.368;2023-05-13T10:06:58;98749.06;;;19.62;42.61
75317;BME280;63913;51.492;10.368;2023-05-13T10:09:25;98751.78;;;19.50;42.57
75317;BME280;63913;51.492;10.368;2023-05-13T10:11:52;98754.38;;;19.51;43.08
75317;BME280;63913;51.492;10.368;2023-05-13T10:14:19;98761.22;;;19.63;43.46
75317;BME280;63913;51.492;10.368;2023-05-13T10:16:45;98755.91;;;19.70;43.17
75317;BME280;63913;51.492;10.368;2023-05-13T10:19:12;98757.56;;;19.79;43.10
75317;BME280;63913;51.492;10.368;2023-05-13T10:21:38;98750.59;;;19.81;41.54
75317;BME280;63913;51.492;10.368;2023-05-13T10:24:04;98760.09;;;19.88;38.59
75317;BME280;63913;51.492;10.368;2023-05-13T10:26:31;98763.63;;;19.81;37.72
75317;BME280;63913;51.492;10.368;2023-05-13T10:28:56;98762.75;;;19.84;36.92
75317;BME280;63913;51.492;10.368;2023-05-13T10:31:22;98760.06;;;19.93;37.60
75317;BME280;63913;51.492;10.368;2023-05-13T10:33:49;98762.53;;;20.03;36.70
75317;BME280;63913;51.492;10.368;2023-05-13T10:42:07;98750.97;;;20.24;38.11
75317;BME280;63913;51.492;10.368;2023-05-13T10:44:41;98759.69;;;20.23;39.52
75317;BME280;63913;51.492;10.368;2023-05-13T10:47:08;98750.13;;;20.22;37.12
75317;BME280;63913;51.492;10.368;2023-05-13T10:49:34;98757.97;;;20.20;37.25
75317;BME280;63913;51.492;10.368;2023-05-13T10:52:07;98752.81;;;20.16;36.40
75317;BME280;63913;51.492;10.368;2023-05-13T10:54:37;98749.28;;;20.20;36.84
75317;BME280;63913;51.492;10.368;2023-05-13T10:57:05;98760.47;;;20.28;36.76
75317;BME280;63913;51.492;10.368;2023-05-13T10:59:30;98756.09;;;20.35;39.07
75317;BME280;63913;51.492;10.368;2023-05-13T11:02:00;98756.81;;;20.44;38.65
75317;BME280;63913;51.492;10.368;2023-05-13T11:04:26;98760.28;;;20.46;38.86
75317;BME280;63913;51.492;10.368;2023-05-13T11:06:51;98757.59;;;20.52;38.78
75317;BME280;63913;51.492;10.368;2023-05-13T11:11:52;98752.31;;;20.59;37.96
75317;BME280;63913;51.492;10.368;2023-05-13T11:14:22;98753.09;;;20.64;39.79
75317;BME280;63913;51.492;10.368;2023-05-13T11:16:53;98752.94;;;20.74;37.42
75317;BME280;63913;51.492;10.368;2023-05-13T11:19:25;98755.38;;;20.85;37.95
75317;BME280;63913;51.492;10.368;2023-05-13T11:21:55;98758.75;;;20.93;37.88
75317;BME280;63913;51.492;10.368;2023-05-13T11:24:21;98752.63;;;20.95;38.31
75317;BME280;63913;51.492;10.368;2023-05-13T11:26:52;98746.50;;;20.98;36.58
75317;BME280;63913;51.492;10.368;2023-05-13T11:31:52;98744.63;;;21.05;37.57
75317;BME280;63913;51.492;10.368;2023-05-13T11:34:21;98741.03;;;21.12;37.35
75317;BME280;63913;51.492;10.368;2023-05-13T11:36:48;98749.72;;;21.15;36.13
75317;BME280;63913;51.492;10.368;2023-05-13T11:39:19;98742.56;;;21.26;36.48
75317;BME280;63913;51.492;10.368;2023-05-13T11:41:46;98744.19;;;21.33;35.59
75317;BME280;63913;51.492;10.368;2023-05-13T11:44:14;98731.22;;;21.27;34.90
75317;BME280;63913;51.492;10.368;2023-05-13T11:47:00;98736.13;;;21.46;36.58
75317;BME280;63913;51.492;10.368;2023-05-13T11:49:40;98738.78;;;21.43;35.38
75317;BME280;63913;51.492;10.368;2023-05-13T11:52:17;98740.78;;;21.30;37.00
75317;BME280;63913;51.492;10.368;2023-05-13T11:54:52;98757.09;;;21.43;37.93
75317;BME280;63913;51.492;10.368;2023-05-13T11:57:25;98750.19;;;21.40;36.00
75317;BME280;63913;51.492;10.368;2023-05-13T11:59:54;98746.41;;;21.56;35.53
75317;BME280;63913;51.492;10.368;2023-05-13T12:02:28;98742.69;;;21.68;36.02
75317;BME280;63913;51.492;10.368;2023-05-13T12:04:54;98739.31;;;21.63;34.92
75317;BME280;63913;51.492;10.368;2023-05-13T12:07:23;98742.69;;;21.68;36.42
75317;BME280;63913;51.492;10.368;2023-05-13T12:09:50;98736.56;;;21.70;35.24
75317;BME280;63913;51.492;10.368;2023-05-13T12:12:16;98734.63;;;21.80;33.93
75317;BME280;63913;51.492;10.368;2023-05-13T12:14:44;98740.53;;;21.90;35.03
75317;BME280;63913;51.492;10.368;2023-05-13T12:17:11;98738.44;;;22.10;34.03
75317;BME280;63913;51.492;10.368;2023-05-13T12:19:37;98735.78;;;22.12;35.34
75317;BME280;63913;51.492;10.368;2023-05-13T12:22:04;98724.28;;;22.19;35.35
75317;BME280;63913;51.492;10.368;2023-05-13T12:24:32;98735.59;;;22.21;35.85
75317;BME280;63913;51.492;10.368;2023-05-13T12:27:04;98735.50;;;22.25;34.38
75317;BME280;63913;51.492;10.368;2023-05-13T12:29:40;98737.97;;;22.33;33.52
75317;BME280;63913;51.492;10.368;2023-05-13T12:32:06;98730.97;;;22.33;34.67
75317;BME280;63913;51.492;10.368;2023-05-13T12:34:33;98745.66;;;21.97;35.13
75317;BME280;63913;51.492;10.368;2023-05-13T12:37:11;98747.34;;;22.01;34.01
75317;BME280;63913;51.492;10.368;2023-05-13T12:39:38;98740.91;;;22.18;34.80
75317;BME280;63913;51.492;10.368;2023-05-13T12:42:03;98729.19;;;22.34;32.90
75317;BME280;63913;51.492;10.368;2023-05-13T12:44:29;98733.84;;;22.21;31.21
75317;BME280;63913;51.492;10.368;2023-05-13T12:46:56;98743.88;;;22.42;33.54
75317;BME280;63913;51.492;10.368;2023-05-13T12:49:22;98737.34;;;22.62;33.02
75317;BME280;63913;51.492;10.368;2023-05-13T12:51:48;98737.16;;;22.69;32.00
75317;BME280;63913;51.492;10.368;2023-05-13T12:54:16;98736.69;;;22.52;31.58
75317;BME280;63913;51.492;10.368;2023-05-13T12:56:41;98732.94;;;22.22;31.24
75317;BME280;63913;51.492;10.368;2023-05-13T12:59:07;98738.31;;;22.16;31.12
75317;BME280;63913;51.492;10.368;2023-05-13T13:01:33;98739.72;;;22.32;31.50
75317;BME280;63913;51.492;10.368;2023-05-13T13:03:59;98729.94;;;22.40;32.07
75317;BME280;63913;51.492;10.368;2023-05-13T13:06:24;98728.81;;;22.52;32.26